createdAt,value
2023-08-29T00:01:48.386Z,30.84
2023-08-29T00:04:15.839Z,31.50
2023-08-29T00:06:43.049Z,32.19
2023-08-29T00:09:10.717Z,32.82
2023-08-29T00:11:38.346Z,33.26
2023-08-29T00:14:06.603Z,33.52
2023-08-29T00:16:33.978Z,34.04
2023-08-29T00:19:01.515Z,34.41
2023-08-29T00:21:28.751Z,34.77
2023-08-29T00:23:56.381Z,35.18
2023-08-29T00:26:23.501Z,35.75
2023-08-29T00:28:54.202Z,36.06
2023-08-29T00:31:22.084Z,36.20
2023-08-29T00:33:49.822Z,36.39
2023-08-29T00:36:17.484Z,36.82
2023-08-29T00:38:44.997Z,37.27
2023-08-29T00:41:12.713Z,37.55
2023-08-29T00:43:40.067Z,37.68
2023-08-29T00:46:10.377Z,38.15
2023-08-29T00:48:39.273Z,38.71
2023-08-29T00:51:06.726Z,38.76
2023-08-29T00:53:34.249Z,38.98
2023-08-29T00:56:01.668Z,39.02
2023-08-29T00:58:29.502Z,39.27
2023-08-29T01:00:57.036Z,39.63
2023-08-29T01:03:24.595Z,39.96
2023-08-29T01:05:52.209Z,40.27
2023-08-29T01:08:19.650Z,40.71
2023-08-29T01:11:23.489Z,41.17
2023-08-29T01:14:44.042Z,42.03
2023-08-29T01:17:23.657Z,42.34
2023-08-29T01:19:52.827Z,42.83
2023-08-29T01:22:41.234Z,43.02
2023-08-29T01:25:11.173Z,43.53
2023-08-29T01:27:39.068Z,43.57
2023-08-29T01:30:07.469Z,43.62
2023-08-29T01:32:35.084Z,43.80
2023-08-29T01:35:05.816Z,44.43
2023-08-29T01:37:33.011Z,45.25
2023-08-29T01:40:00.945Z,44.51
2023-08-29T01:42:28.873Z,44.61
2023-08-29T01:44:56.144Z,44.56
2023-08-29T01:47:23.620Z,43.30
2023-08-29T01:49:52.410Z,41.98
2023-08-29T01:52:19.770Z,40.86
2023-08-29T01:54:46.940Z,40.62
2023-08-29T01:57:14.479Z,40.36
2023-08-29T01:59:41.927Z,39.73
2023-08-29T02:02:09.257Z,38.94
2023-08-29T02:04:36.843Z,38.62
2023-08-29T02:07:06.666Z,39.45
2023-08-29T02:09:34.175Z,39.20
2023-08-29T02:12:03.398Z,38.44
2023-08-29T02:14:30.708Z,37.39
2023-08-29T02:16:58.464Z,36.11
2023-08-29T02:19:27.174Z,35.71
2023-08-29T02:21:54.905Z,34.93
2023-08-29T02:24:23.230Z,33.69
2023-08-29T02:26:50.733Z,32.39
2023-08-29T02:29:18.413Z,31.66
2023-08-29T02:31:46.632Z,31.07
2023-08-29T02:34:13.945Z,30.36
2023-08-29T02:36:41.986Z,30.18
2023-08-29T02:39:09.536Z,29.96
2023-08-29T02:41:37.974Z,29.58
2023-08-29T02:44:05.805Z,29.18
2023-08-29T02:46:33.431Z,28.72
2023-08-29T02:49:01.017Z,28.46
2023-08-29T02:51:28.620Z,28.40
2023-08-29T02:53:56.766Z,28.49
2023-08-29T02:56:24.218Z,28.50
2023-08-29T02:58:52.129Z,28.63
2023-08-29T03:01:20.467Z,28.76
2023-08-29T03:03:48.703Z,29.08
2023-08-29T03:06:15.937Z,29.30
2023-08-29T03:08:43.624Z,29.30
2023-08-29T03:11:10.879Z,29.59
2023-08-29T03:13:38.451Z,29.74
2023-08-29T03:16:16.857Z,29.67
2023-08-29T03:18:46.915Z,29.44
2023-08-29T03:21:14.510Z,29.08
2023-08-29T03:23:42.139Z,29.05
2023-08-29T03:26:11.600Z,29.02
2023-08-29T03:28:41.857Z,29.11
2023-08-29T03:31:10.266Z,29.48
2023-08-29T03:33:42.093Z,29.49
2023-08-29T03:36:10.117Z,29.13
2023-08-29T03:38:41.277Z,29.37
2023-08-29T03:41:09.268Z,29.32
2023-08-29T03:43:37.464Z,29.20
2023-08-29T03:46:06.047Z,28.98
2023-08-29T03:48:34.939Z,28.88
2023-08-29T03:51:11.745Z,28.86
2023-08-29T03:53:39.008Z,28.95
2023-08-29T03:56:09.958Z,29.01
2023-08-29T03:58:37.204Z,28.99
2023-08-29T04:01:05.322Z,28.83
2023-08-29T04:03:33.035Z,28.60
2023-08-29T04:06:02.799Z,28.70
2023-08-29T04:08:30.398Z,28.90
2023-08-29T04:10:57.888Z,29.03
2023-08-29T04:13:25.730Z,29.09
2023-08-29T04:15:54.123Z,29.33
2023-08-29T04:18:21.651Z,29.47
2023-08-29T04:20:49.237Z,29.19
2023-08-29T04:23:17.862Z,28.96
2023-08-29T04:25:45.917Z,28.61
2023-08-29T04:28:15.427Z,28.48
2023-08-29T04:30:42.977Z,28.54
2023-08-29T04:33:10.917Z,28.71
2023-08-29T04:35:38.311Z,28.71
2023-08-29T04:38:06.232Z,28.69
2023-08-29T04:40:33.817Z,28.44
2023-08-29T04:43:01.451Z,28.34
2023-08-29T04:45:28.739Z,28.37
2023-08-29T04:47:56.446Z,28.40
2023-08-29T04:50:26.486Z,28.47
2023-08-29T04:52:54.584Z,28.38
2023-08-29T04:55:22.041Z,28.39
2023-08-29T04:57:50.103Z,28.41
2023-08-29T05:00:18.246Z,28.42
2023-08-29T05:02:45.972Z,28.48
2023-08-29T05:05:13.451Z,28.54
2023-08-29T05:07:40.712Z,28.45
2023-08-29T05:10:09.764Z,28.39
2023-08-29T05:12:37.409Z,28.47
2023-08-29T05:15:06.074Z,28.54
2023-08-29T05:17:33.937Z,28.66
2023-08-29T05:20:01.221Z,28.64
2023-08-29T05:22:28.541Z,28.64
2023-08-29T05:24:56.140Z,28.56
2023-08-29T05:27:23.785Z,28.52
2023-08-29T05:29:51.085Z,28.53
2023-08-29T05:32:18.546Z,28.59
2023-08-29T05:34:45.930Z,28.69
2023-08-29T05:37:13.416Z,28.78
2023-08-29T05:39:41.519Z,28.62
2023-08-29T05:42:09.145Z,28.70
2023-08-29T05:44:37.070Z,28.75
2023-08-29T05:47:04.450Z,28.76
2023-08-29T05:49:32.343Z,28.91
2023-08-29T05:51:59.703Z,29.05
2023-08-29T05:54:28.102Z,29.22
2023-08-29T05:56:55.347Z,29.41
2023-08-29T05:59:22.652Z,29.66
2023-08-29T06:01:50.091Z,29.64
2023-08-29T06:04:17.554Z,29.67
2023-08-29T06:06:45.206Z,29.90
2023-08-29T06:09:12.885Z,30.06
2023-08-29T06:11:41.029Z,30.06
2023-08-29T06:14:08.707Z,30.10
2023-08-29T06:16:36.412Z,30.12
2023-08-29T06:19:04.156Z,30.12
2023-08-29T06:21:31.331Z,30.34
2023-08-29T06:23:58.612Z,30.44
2023-08-29T06:26:26.160Z,30.41
2023-08-29T06:28:53.669Z,30.51
2023-08-29T06:31:21.604Z,30.37
2023-08-29T06:33:49.006Z,30.34
2023-08-29T06:36:17.158Z,30.44
2023-08-29T06:38:44.360Z,30.73
2023-08-29T06:41:12.237Z,30.88
2023-08-29T06:43:39.863Z,30.83
2023-08-29T06:46:07.327Z,30.66
2023-08-29T06:48:34.911Z,30.34
2023-08-29T06:51:03.199Z,30.27
2023-08-29T06:53:30.780Z,30.39
2023-08-29T06:55:58.374Z,30.49
2023-08-29T06:58:27.155Z,30.30
2023-08-29T07:00:54.732Z,30.10
2023-08-29T07:03:22.108Z,29.89
2023-08-29T07:05:49.540Z,29.65
2023-08-29T07:08:17.231Z,29.50
2023-08-29T07:10:45.040Z,29.45
2023-08-29T07:13:12.700Z,29.63
2023-08-29T07:15:40.229Z,29.81
2023-08-29T07:18:07.721Z,29.85
2023-08-29T07:20:35.554Z,29.85
2023-08-29T07:23:03.634Z,29.94
2023-08-29T07:25:42.449Z,30.08
2023-08-29T07:28:14.644Z,30.58
2023-08-29T07:30:48.730Z,31.02
2023-08-29T07:33:16.452Z,31.04
2023-08-29T07:35:43.899Z,30.83
2023-08-29T07:38:11.194Z,30.74
2023-08-29T07:40:38.752Z,30.39
2023-08-29T07:43:07.764Z,30.23
2023-08-29T07:45:35.867Z,30.19
2023-08-29T07:48:03.958Z,30.43
2023-08-29T07:50:31.785Z,30.82
2023-08-29T07:52:59.442Z,30.99
2023-08-29T07:55:27.291Z,30.80
2023-08-29T07:57:54.571Z,30.74
2023-08-29T08:00:22.285Z,30.68
2023-08-29T08:02:50.026Z,30.69
2023-08-29T08:05:17.947Z,30.92
2023-08-29T08:07:45.881Z,30.90
2023-08-29T08:10:14.034Z,30.81
2023-08-29T08:12:41.594Z,30.76
2023-08-29T08:15:09.577Z,30.81
2023-08-29T08:17:37.601Z,30.96
2023-08-29T08:20:13.100Z,31.14
2023-08-29T08:22:41.383Z,31.36
2023-08-29T08:25:11.018Z,31.38
2023-08-29T08:27:41.060Z,31.53
2023-08-29T08:30:09.380Z,31.77
2023-08-29T08:32:37.183Z,31.98
2023-08-29T08:35:08.444Z,32.21
2023-08-29T08:37:37.100Z,32.63
2023-08-29T08:40:11.788Z,32.71
2023-08-29T08:42:42.223Z,32.87
2023-08-29T08:45:13.008Z,33.08
2023-08-29T08:47:40.701Z,32.93
2023-08-29T08:50:09.470Z,32.42
2023-08-29T08:52:39.499Z,32.10
2023-08-29T08:55:07.678Z,31.96
2023-08-29T08:57:35.278Z,31.97
2023-08-29T09:00:03.715Z,31.51
2023-08-29T09:02:31.316Z,31.26
2023-08-29T09:05:01.860Z,31.22
2023-08-29T09:07:29.149Z,31.34
2023-08-29T09:10:12.773Z,31.49
2023-08-29T09:12:50.884Z,31.53
2023-08-29T09:15:19.993Z,31.63
2023-08-29T09:17:51.332Z,31.92
2023-08-29T09:20:19.164Z,31.95
2023-08-29T09:22:46.704Z,32.01
2023-08-29T09:25:14.531Z,31.94
2023-08-29T09:27:48.858Z,32.04
2023-08-29T09:30:17.445Z,32.14
2023-08-29T09:32:49.730Z,32.13
2023-08-29T09:35:19.884Z,32.07
2023-08-29T09:37:54.204Z,31.90
2023-08-29T09:40:38.265Z,31.73
2023-08-29T09:43:07.454Z,31.65
2023-08-29T09:45:36.412Z,31.58
2023-08-29T09:48:07.338Z,31.51
2023-08-29T09:50:36.357Z,31.38
2023-08-29T09:53:04.171Z,31.34
2023-08-29T09:55:34.273Z,31.22
2023-08-29T09:58:02.600Z,30.96
2023-08-29T10:00:30.182Z,30.85
2023-08-29T10:02:57.842Z,30.60
2023-08-29T10:05:26.934Z,30.44
2023-08-29T10:07:57.660Z,30.25
2023-08-29T10:10:25.267Z,30.06
2023-08-29T10:12:53.058Z,30.06
2023-08-29T10:15:21.023Z,30.05
2023-08-29T10:17:48.781Z,29.97
2023-08-29T10:20:16.302Z,29.89
2023-08-29T10:22:49.409Z,29.78
2023-08-29T10:25:19.494Z,29.60
2023-08-29T10:27:46.692Z,29.42
2023-08-29T10:30:15.808Z,29.32
2023-08-29T10:32:44.395Z,29.23
2023-08-29T10:35:19.618Z,29.20
2023-08-29T10:37:53.645Z,29.01
2023-08-29T10:40:21.983Z,28.97
2023-08-29T10:42:58.281Z,28.84
2023-08-29T10:45:48.929Z,28.75
2023-08-29T10:48:31.985Z,28.62
2023-08-29T10:51:11.805Z,28.56
2023-08-29T10:53:39.604Z,28.43
2023-08-29T10:56:09.005Z,28.28
2023-08-29T10:58:40.270Z,28.14
2023-08-29T11:01:08.879Z,27.86
2023-08-29T11:03:43.351Z,27.70
2023-08-29T11:06:11.249Z,27.47
2023-08-29T11:08:38.557Z,27.31
2023-08-29T11:11:20.146Z,27.10
2023-08-29T11:14:14.004Z,26.89
2023-08-29T11:17:13.415Z,26.70
2023-08-29T11:19:43.051Z,26.48
2023-08-29T11:22:13.122Z,26.35
2023-08-29T11:24:40.977Z,26.22
2023-08-29T11:27:09.250Z,26.09
2023-08-29T11:29:37.612Z,25.98
2023-08-29T11:32:06.158Z,25.79
2023-08-29T11:34:36.322Z,25.64
2023-08-29T11:37:05.215Z,25.37
2023-08-29T11:39:36.121Z,24.99
2023-08-29T11:42:21.349Z,24.88
2023-08-29T11:45:36.871Z,24.68
2023-08-29T11:47:42.286Z,24.41
2023-08-29T11:50:11.979Z,23.97
2023-08-29T11:52:39.931Z,23.25
2023-08-29T11:55:09.453Z,22.95
2023-08-29T11:57:38.128Z,22.82
2023-08-29T12:00:10.486Z,22.61
2023-08-29T12:02:37.907Z,22.58
2023-08-29T12:05:08.867Z,22.45
2023-08-29T12:07:36.263Z,22.41
2023-08-29T12:10:10.634Z,22.32
2023-08-29T12:12:40.623Z,22.10
2023-08-29T12:15:11.990Z,22.04
2023-08-29T12:17:42.004Z,21.77
2023-08-29T12:20:15.814Z,21.60
2023-08-29T12:22:48.244Z,21.43
2023-08-29T12:25:16.493Z,21.58
2023-08-29T12:27:47.355Z,21.65
2023-08-29T12:30:15.725Z,21.63
2023-08-29T12:32:50.249Z,21.60
2023-08-29T12:35:18.721Z,21.54
2023-08-29T12:37:46.062Z,21.45
2023-08-29T12:40:15.354Z,21.48
2023-08-29T12:42:45.078Z,21.60
2023-08-29T12:45:12.542Z,21.67
2023-08-29T12:47:40.175Z,21.71
2023-08-29T12:50:08.782Z,21.69
2023-08-29T12:52:36.643Z,21.75
2023-08-29T12:55:04.373Z,21.71
2023-08-29T12:57:32.192Z,21.73
2023-08-29T12:59:59.684Z,21.64
2023-08-29T13:02:27.167Z,21.35
2023-08-29T13:04:55.317Z,21.17
2023-08-29T13:07:23.061Z,21.06
2023-08-29T13:09:52.600Z,20.90
2023-08-29T13:12:29.060Z,20.69
2023-08-29T13:14:56.824Z,20.71
2023-08-29T13:17:24.797Z,20.68
2023-08-29T13:19:52.051Z,20.71
2023-08-29T13:22:19.496Z,20.78
2023-08-29T13:24:47.227Z,20.83
2023-08-29T13:27:15.103Z,20.91
2023-08-29T13:29:43.085Z,20.89
2023-08-29T13:32:10.601Z,20.90
2023-08-29T13:34:38.729Z,20.90
2023-08-29T13:37:06.606Z,20.74
2023-08-29T13:39:33.876Z,20.39
2023-08-29T13:42:01.780Z,20.15
2023-08-29T13:44:29.374Z,19.73
2023-08-29T13:46:57.195Z,19.31
2023-08-29T13:49:24.286Z,18.83
2023-08-29T13:51:52.670Z,18.43
2023-08-29T13:54:20.904Z,18.16
2023-08-29T13:56:48.832Z,17.93
2023-08-29T13:59:16.355Z,17.85
2023-08-29T14:01:43.752Z,17.77
2023-08-29T14:04:11.252Z,17.73
2023-08-29T14:06:39.011Z,17.59
2023-08-29T14:09:06.724Z,17.41
2023-08-29T14:11:34.089Z,17.39
2023-08-29T14:14:01.469Z,17.34
2023-08-29T14:16:32.829Z,17.25
2023-08-29T14:19:00.342Z,17.22
2023-08-29T14:21:28.237Z,17.21
2023-08-29T14:23:55.581Z,17.22
2023-08-29T14:26:23.452Z,17.29
2023-08-29T14:28:50.883Z,17.33
2023-08-29T14:31:25.134Z,17.24
2023-08-29T14:33:53.383Z,17.18
2023-08-29T14:36:21.940Z,17.08
2023-08-29T14:38:49.962Z,17.03
2023-08-29T14:41:17.427Z,17.04
2023-08-29T14:43:45.346Z,17.06
2023-08-29T14:46:12.627Z,17.15
2023-08-29T14:48:40.292Z,17.30
2023-08-29T14:51:07.848Z,17.50
2023-08-29T14:53:35.583Z,17.58
2023-08-29T14:56:03.413Z,17.79
2023-08-29T14:58:32.383Z,17.69
2023-08-29T15:00:59.913Z,17.56
2023-08-29T15:03:27.520Z,17.55
2023-08-29T15:05:58.493Z,17.63
2023-08-29T15:08:27.328Z,17.82
2023-08-29T15:10:54.984Z,17.90
2023-08-29T15:13:23.416Z,18.02
2023-08-29T15:15:51.186Z,18.05
2023-08-29T15:18:18.994Z,18.13
2023-08-29T15:20:46.767Z,18.15
2023-08-29T15:23:14.334Z,18.15
2023-08-29T15:25:43.156Z,18.32
2023-08-29T15:28:11.443Z,18.37
2023-08-29T15:30:38.968Z,18.34
2023-08-29T15:33:06.275Z,18.37
2023-08-29T15:35:33.484Z,18.41
2023-08-29T15:38:01.029Z,18.47
2023-08-29T15:40:28.518Z,18.51
2023-08-29T15:42:56.007Z,18.41
2023-08-29T15:45:23.347Z,18.51
2023-08-29T15:47:53.535Z,18.50
2023-08-29T15:50:21.143Z,18.53
2023-08-29T15:52:48.482Z,18.61
2023-08-29T15:55:16.348Z,18.65
2023-08-29T15:57:43.825Z,18.63
2023-08-29T16:00:15.438Z,18.66
2023-08-29T16:02:46.272Z,18.62
2023-08-29T16:05:13.959Z,18.67
2023-08-29T16:07:41.474Z,18.73
2023-08-29T16:10:14.020Z,18.71
2023-08-29T16:12:42.854Z,18.80
2023-08-29T16:15:11.085Z,18.83
2023-08-29T16:17:38.954Z,18.83
2023-08-29T16:20:12.619Z,18.82
2023-08-29T16:22:40.266Z,18.83
2023-08-29T16:25:08.193Z,18.91
2023-08-29T16:27:38.869Z,18.84
2023-08-29T16:30:08.600Z,18.88
2023-08-29T16:32:36.750Z,18.82
2023-08-29T16:35:04.628Z,18.74
2023-08-29T16:37:32.167Z,18.68
2023-08-29T16:39:59.540Z,18.59
2023-08-29T16:42:28.754Z,18.63
2023-08-29T16:44:56.139Z,18.55
2023-08-29T16:47:23.797Z,18.45
2023-08-29T16:49:51.327Z,18.35
2023-08-29T16:52:18.980Z,18.21
2023-08-29T16:54:46.776Z,18.18
2023-08-29T16:57:14.093Z,18.16
2023-08-29T17:00:01.517Z,18.14
2023-08-29T17:02:29.820Z,18.20
2023-08-29T17:04:57.600Z,18.20
2023-08-29T17:07:25.696Z,18.10
2023-08-29T17:09:52.971Z,17.96
2023-08-29T17:12:21.477Z,17.87
2023-08-29T17:14:52.471Z,17.80
2023-08-29T17:17:20.586Z,17.78
2023-08-29T17:19:48.547Z,17.82
2023-08-29T17:22:16.332Z,17.77
2023-08-29T17:24:43.872Z,17.78
2023-08-29T17:27:11.171Z,17.80
2023-08-29T17:29:38.900Z,17.81
2023-08-29T17:32:07.323Z,17.84
2023-08-29T17:34:35.324Z,17.86
2023-08-29T17:37:03.100Z,18.04
2023-08-29T17:39:30.827Z,18.21
2023-08-29T17:41:58.042Z,18.27
2023-08-29T17:44:25.413Z,18.26
2023-08-29T17:46:52.841Z,18.37
2023-08-29T17:49:20.237Z,18.32
2023-08-29T17:51:49.073Z,18.22
2023-08-29T17:54:17.208Z,18.21
2023-08-29T17:56:45.228Z,18.18
2023-08-29T17:59:12.910Z,18.13
2023-08-29T18:01:40.305Z,18.17
2023-08-29T18:04:09.037Z,18.18
2023-08-29T18:06:36.843Z,18.09
2023-08-29T18:09:05.415Z,18.08
2023-08-29T18:11:33.700Z,18.01
2023-08-29T18:14:01.942Z,17.96
2023-08-29T18:16:29.224Z,17.95
2023-08-29T18:19:00.593Z,17.94
2023-08-29T18:21:28.588Z,17.89
2023-08-29T18:23:56.770Z,17.97
2023-08-29T18:26:24.234Z,17.95
2023-08-29T18:28:51.765Z,18.02
2023-08-29T18:31:19.223Z,18.05
2023-08-29T18:33:46.591Z,18.03
2023-08-29T18:36:14.478Z,18.13
2023-08-29T18:38:41.996Z,18.16
2023-08-29T18:41:10.395Z,18.16
2023-08-29T18:43:39.882Z,18.14
2023-08-29T18:46:07.433Z,18.13
2023-08-29T18:48:35.306Z,18.09
2023-08-29T18:51:02.729Z,18.05
2023-08-29T18:53:30.215Z,18.03
2023-08-29T18:55:57.572Z,18.04
2023-08-29T18:58:24.854Z,17.97
2023-08-29T19:00:52.256Z,17.94
2023-08-29T19:03:20.072Z,17.87
2023-08-29T19:05:47.670Z,17.79
2023-08-29T19:08:14.948Z,17.84
2023-08-29T19:10:45.089Z,17.85
2023-08-29T19:13:12.955Z,17.91
2023-08-29T19:15:40.270Z,17.98
2023-08-29T19:18:08.529Z,18.01
2023-08-29T19:20:38.661Z,17.96
2023-08-29T19:23:06.540Z,18.07
2023-08-29T19:25:34.357Z,18.02
2023-08-29T19:28:01.540Z,18.08
2023-08-29T19:30:29.086Z,18.13
2023-08-29T19:33:01.638Z,18.18
2023-08-29T19:35:31.603Z,18.22
2023-08-29T19:37:59.758Z,18.23
2023-08-29T19:40:27.002Z,18.24
2023-08-29T19:42:54.789Z,18.29
2023-08-29T19:45:21.882Z,18.30
2023-08-29T19:47:49.601Z,18.29
2023-08-29T19:50:16.954Z,18.30
2023-08-29T19:52:47.505Z,18.38
2023-08-29T19:55:15.754Z,18.39
2023-08-29T19:57:43.288Z,18.39
2023-08-29T20:00:10.972Z,18.37
2023-08-29T20:02:41.160Z,18.40
2023-08-29T20:05:09.343Z,18.39
2023-08-29T20:07:36.934Z,18.36
2023-08-29T20:10:04.448Z,18.33
2023-08-29T20:12:31.934Z,18.28
2023-08-29T20:14:59.907Z,18.33
2023-08-29T20:17:27.163Z,18.29
2023-08-29T20:19:54.501Z,18.29
2023-08-29T20:22:22.333Z,18.25
2023-08-29T20:24:49.806Z,18.23
2023-08-29T20:27:17.477Z,18.24
2023-08-29T20:29:44.980Z,18.19
2023-08-29T20:32:12.309Z,18.09
2023-08-29T20:34:40.881Z,18.08
2023-08-29T20:37:09.040Z,17.95
2023-08-29T20:39:36.136Z,17.92
2023-08-29T20:42:03.850Z,17.87
2023-08-29T20:44:31.604Z,17.82
2023-08-29T20:46:58.770Z,17.80
2023-08-29T20:49:26.196Z,17.75
2023-08-29T20:51:53.537Z,17.74
2023-08-29T20:54:21.261Z,17.69
2023-08-29T20:56:48.653Z,17.71
2023-08-29T20:59:15.861Z,17.65
2023-08-29T21:01:43.164Z,17.60
2023-08-29T21:04:10.313Z,17.63
2023-08-29T21:06:39.812Z,17.60
2023-08-29T21:09:07.255Z,17.57
2023-08-29T21:11:34.833Z,17.58
2023-08-29T21:14:02.289Z,17.61
2023-08-29T21:16:29.651Z,17.58
2023-08-29T21:18:57.680Z,17.55
2023-08-29T21:21:25.352Z,17.55
2023-08-29T21:23:52.837Z,17.51
2023-08-29T21:26:20.069Z,17.48
2023-08-29T21:28:47.563Z,17.50
2023-08-29T21:31:15.743Z,17.45
2023-08-29T21:33:44.116Z,17.45
2023-08-29T21:36:11.777Z,17.42
2023-08-29T21:38:38.920Z,17.35
2023-08-29T21:41:06.669Z,17.35
2023-08-29T21:43:33.868Z,17.33
2023-08-29T21:46:01.612Z,17.35
2023-08-29T21:48:31.741Z,17.35
2023-08-29T21:50:58.963Z,17.34
2023-08-29T21:53:26.364Z,17.38
2023-08-29T21:55:53.643Z,17.43
2023-08-29T21:58:21.479Z,17.45
2023-08-29T22:00:49.457Z,17.53
2023-08-29T22:03:17.008Z,17.56
2023-08-29T22:05:44.254Z,17.59
2023-08-29T22:08:11.951Z,17.70
2023-08-29T22:10:39.526Z,17.72
2023-08-29T22:13:09.317Z,17.79
2023-08-29T22:15:37.609Z,17.82
2023-08-29T22:18:06.395Z,17.85
2023-08-29T22:20:34.186Z,17.90
2023-08-29T22:23:01.506Z,17.93
2023-08-29T22:25:28.895Z,17.92
2023-08-29T22:27:56.689Z,17.90
2023-08-29T22:30:25.521Z,17.90
2023-08-29T22:32:53.041Z,17.84
2023-08-29T22:35:20.846Z,17.80
2023-08-29T22:37:48.437Z,17.72
2023-08-29T22:40:16.061Z,17.66
2023-08-29T22:42:43.551Z,17.59
2023-08-29T22:45:11.293Z,17.55
2023-08-29T22:47:38.564Z,17.53
2023-08-29T22:50:07.182Z,17.47
2023-08-29T22:52:34.916Z,17.43
2023-08-29T22:55:05.524Z,17.31
2023-08-29T22:57:33.680Z,17.28
2023-08-29T23:00:01.190Z,17.20
2023-08-29T23:02:28.671Z,17.21
2023-08-29T23:04:56.345Z,17.16
2023-08-29T23:07:24.000Z,17.08
2023-08-29T23:09:51.306Z,17.03
2023-08-29T23:12:19.944Z,17.00
2023-08-29T23:14:47.506Z,16.98
2023-08-29T23:17:15.521Z,16.97
2023-08-29T23:19:44.881Z,16.91
2023-08-29T23:22:12.210Z,16.89
2023-08-29T23:24:39.902Z,16.93
2023-08-29T23:27:07.792Z,16.97
2023-08-29T23:29:37.529Z,16.99
2023-08-29T23:32:06.086Z,16.94
2023-08-29T23:34:33.615Z,16.92
2023-08-29T23:37:00.957Z,16.95
2023-08-29T23:39:28.461Z,16.95
2023-08-29T23:41:56.875Z,16.91
2023-08-29T23:44:24.522Z,16.96
2023-08-29T23:46:51.796Z,17.02
2023-08-29T23:49:19.200Z,17.05
2023-08-29T23:51:47.142Z,17.03
2023-08-29T23:54:14.850Z,17.09
2023-08-29T23:56:42.481Z,17.12
2023-08-29T23:59:10.215Z,17.05
